createdAt,value
2022-09-16T00:01:12.403Z,7.40
2022-09-16T00:03:55.707Z,8.15
2022-09-16T00:06:25.594Z,7.55
2022-09-16T00:08:56.482Z,7.60
2022-09-16T00:11:24.810Z,8.25
2022-09-16T00:13:52.807Z,7.15
2022-09-16T00:16:23.462Z,7.10
2022-09-16T00:18:56.585Z,8.20
2022-09-16T00:21:25.583Z,8.50
2022-09-16T00:23:53.473Z,8.63
2022-09-16T00:26:21.300Z,7.93
2022-09-16T00:28:49.727Z,7.82
2022-09-16T00:31:18.622Z,7.22
2022-09-16T00:33:47.012Z,7.63
2022-09-16T00:36:18.214Z,8.48
2022-09-16T00:38:46.688Z,8.02
2022-09-16T00:41:17.835Z,8.90
2022-09-16T00:43:51.755Z,8.00
2022-09-16T00:46:24.130Z,7.72
2022-09-16T00:48:52.925Z,8.38
2022-09-16T00:51:25.292Z,9.07
2022-09-16T00:54:00.136Z,9.18
2022-09-16T00:56:30.502Z,9.25
2022-09-16T00:59:04.654Z,10.32
2022-09-16T01:01:33.411Z,10.15
2022-09-16T01:04:05.118Z,9.18
2022-09-16T01:06:39.650Z,9.45
2022-09-16T01:09:08.165Z,9.95
2022-09-16T01:11:36.315Z,9.23
2022-09-16T01:14:23.918Z,9.52
2022-09-16T01:16:59.193Z,9.68
2022-09-16T01:20:00.217Z,10.13
2022-09-16T01:22:45.976Z,9.63
2022-09-16T01:25:28.863Z,9.80
2022-09-16T01:28:19.858Z,10.00
2022-09-16T01:31:02.128Z,10.18
2022-09-16T01:33:40.472Z,10.30
2022-09-16T01:36:18.832Z,10.15
2022-09-16T01:39:00.669Z,9.90
2022-09-16T01:41:43.265Z,10.23
2022-09-16T01:44:21.737Z,10.23
2022-09-16T01:47:00.295Z,10.77
2022-09-16T01:49:38.871Z,10.00
2022-09-16T01:52:15.540Z,10.65
2022-09-16T01:54:49.193Z,9.98
2022-09-16T01:57:21.108Z,10.43
2022-09-16T02:02:26.365Z,9.18
2022-09-16T02:04:57.457Z,10.05
2022-09-16T02:07:31.131Z,9.93
2022-09-16T02:10:06.789Z,8.93
2022-09-16T02:12:38.853Z,9.63
2022-09-16T02:15:11.632Z,8.52
2022-09-16T02:17:46.899Z,9.95
2022-09-16T02:20:20.117Z,9.13
2022-09-16T02:22:50.622Z,9.57
2022-09-16T02:25:20.667Z,9.52
2022-09-16T02:27:50.645Z,8.95
2022-09-16T02:30:21.373Z,9.18
2022-09-16T02:32:55.905Z,9.07
2022-09-16T02:35:27.010Z,8.38
2022-09-16T02:37:59.415Z,7.57
2022-09-16T02:40:33.077Z,8.50
2022-09-16T02:43:01.733Z,8.57
2022-09-16T02:45:43.344Z,8.02
2022-09-16T02:48:18.783Z,8.57
2022-09-16T02:50:52.344Z,9.73
2022-09-16T02:53:28.877Z,9.60
2022-09-16T02:56:02.015Z,8.98
2022-09-16T02:58:30.652Z,8.63
2022-09-16T03:00:58.865Z,7.15
2022-09-16T03:03:28.104Z,8.20
2022-09-16T03:06:11.805Z,8.90
2022-09-16T03:08:41.052Z,8.82
2022-09-16T03:11:20.726Z,8.60
2022-09-16T03:13:55.929Z,9.13
2022-09-16T03:16:32.943Z,9.43
2022-09-16T03:19:16.037Z,9.85
2022-09-16T03:21:52.253Z,8.90
2022-09-16T03:24:31.073Z,9.43
2022-09-16T03:27:06.509Z,10.10
2022-09-16T03:29:41.504Z,10.20
2022-09-16T03:32:17.666Z,10.30
2022-09-16T03:34:53.674Z,10.13
2022-09-16T03:37:23.381Z,10.73
2022-09-16T03:39:53.695Z,11.05
2022-09-16T03:42:22.527Z,11.18
2022-09-16T03:44:50.786Z,10.15
2022-09-16T03:47:18.753Z,11.25
2022-09-16T03:49:48.096Z,10.60
2022-09-16T03:52:18.493Z,9.80
2022-09-16T03:54:46.414Z,11.02
2022-09-16T03:57:14.181Z,10.32
2022-09-16T03:59:42.196Z,11.65
2022-09-16T04:02:09.883Z,11.50
2022-09-16T04:04:37.609Z,12.27
2022-09-16T04:07:06.942Z,11.60
2022-09-16T04:09:37.215Z,12.05
2022-09-16T04:12:07.620Z,11.65
2022-09-16T04:14:35.962Z,12.80
2022-09-16T04:17:03.946Z,11.90
2022-09-16T04:19:31.696Z,11.43
2022-09-16T04:21:59.818Z,12.25
2022-09-16T04:24:28.968Z,11.68
2022-09-16T04:26:56.693Z,12.88
2022-09-16T04:29:24.833Z,12.45
2022-09-16T04:31:52.722Z,11.27
2022-09-16T04:34:20.468Z,11.80
2022-09-16T04:36:48.447Z,10.38
2022-09-16T04:39:16.799Z,11.00
2022-09-16T04:41:45.890Z,9.75
2022-09-16T04:44:15.164Z,10.90
2022-09-16T04:46:43.057Z,10.85
2022-09-16T04:49:12.747Z,10.60
2022-09-16T04:51:40.818Z,9.35
2022-09-16T04:54:09.438Z,9.82
2022-09-16T04:56:37.153Z,8.07
2022-09-16T04:59:06.745Z,8.27
2022-09-16T05:01:37.826Z,8.27
2022-09-16T05:04:08.413Z,7.97
2022-09-16T05:06:38.564Z,8.68
2022-09-16T05:09:06.649Z,8.25
2022-09-16T05:11:36.958Z,8.07
2022-09-16T05:14:08.759Z,8.60
2022-09-16T05:16:36.508Z,7.50
2022-09-16T05:19:05.560Z,8.05
2022-09-16T05:21:36.078Z,8.15
2022-09-16T05:24:08.205Z,8.00
2022-09-16T05:26:37.862Z,7.75
2022-09-16T05:29:10.301Z,7.40
2022-09-16T05:31:39.826Z,6.55
2022-09-16T05:34:12.463Z,6.25
2022-09-16T05:36:43.175Z,7.38
2022-09-16T05:39:28.180Z,6.10
2022-09-16T05:42:00.707Z,6.25
2022-09-16T05:44:30.023Z,5.88
2022-09-16T05:46:58.369Z,5.85
2022-09-16T05:49:26.348Z,6.07
2022-09-16T05:51:55.725Z,5.45
2022-09-16T05:54:25.160Z,5.07
2022-09-16T05:56:53.486Z,4.78
2022-09-16T05:59:23.484Z,4.82
2022-09-16T06:01:53.283Z,4.68
2022-09-16T06:04:21.268Z,4.40
2022-09-16T06:06:49.072Z,4.15
2022-09-16T06:09:18.764Z,4.07
2022-09-16T06:11:48.713Z,4.13
2022-09-16T06:14:18.176Z,3.72
2022-09-16T06:16:46.614Z,3.55
2022-09-16T06:19:17.851Z,3.03
2022-09-16T06:21:46.560Z,3.73
2022-09-16T06:24:16.889Z,2.92
2022-09-16T06:26:46.565Z,3.78
2022-09-16T06:29:15.221Z,3.35
2022-09-16T06:31:43.904Z,3.55
2022-09-16T06:34:18.665Z,3.40
2022-09-16T06:36:48.373Z,3.67
2022-09-16T06:39:17.086Z,2.90
2022-09-16T06:41:49.142Z,3.70
2022-09-16T06:44:17.237Z,3.13
2022-09-16T06:46:45.179Z,2.95
2022-09-16T06:49:13.146Z,2.83
2022-09-16T06:51:43.482Z,2.90
2022-09-16T06:54:11.837Z,2.97
2022-09-16T06:56:41.527Z,3.10
2022-09-16T06:59:11.234Z,2.40
2022-09-16T07:01:39.130Z,2.85
2022-09-16T07:04:10.572Z,2.85
2022-09-16T07:07:07.425Z,2.53
2022-09-16T07:09:28.418Z,2.40
2022-09-16T07:11:56.949Z,2.72
2022-09-16T07:14:24.709Z,2.97
2022-09-16T07:16:52.903Z,2.83
2022-09-16T07:19:21.881Z,3.75
2022-09-16T07:21:49.646Z,2.88
2022-09-16T07:24:18.202Z,3.00
2022-09-16T07:26:47.891Z,3.17
2022-09-16T07:29:20.515Z,3.42
2022-09-16T07:31:49.037Z,2.60
2022-09-16T07:34:17.316Z,3.42
2022-09-16T07:36:48.362Z,2.97
2022-09-16T07:39:18.704Z,3.00
2022-09-16T07:41:49.643Z,3.20
2022-09-16T07:44:19.970Z,3.58
2022-09-16T07:46:48.065Z,3.20
2022-09-16T07:49:17.221Z,2.45
2022-09-16T07:51:45.561Z,3.22
2022-09-16T07:54:15.474Z,2.97
2022-09-16T07:56:44.655Z,3.35
2022-09-16T07:59:18.365Z,2.85
2022-09-16T08:01:48.798Z,3.97
2022-09-16T08:04:17.846Z,3.25
2022-09-16T08:06:45.897Z,2.72
2022-09-16T08:12:05.369Z,3.20
2022-09-16T08:14:36.147Z,3.00
2022-09-16T08:17:04.823Z,3.00
2022-09-16T08:19:32.694Z,2.95
2022-09-16T08:22:00.611Z,2.75
2022-09-16T08:24:28.901Z,2.63
2022-09-16T08:29:29.916Z,2.72
2022-09-16T08:31:59.119Z,3.08
2022-09-16T08:34:26.896Z,2.58
2022-09-16T08:36:55.095Z,2.60
2022-09-16T08:39:22.933Z,3.38
2022-09-16T08:42:29.976Z,3.00
2022-09-16T08:45:10.022Z,3.80
2022-09-16T08:47:52.100Z,3.28
2022-09-16T08:52:52.304Z,3.17
2022-09-16T08:55:25.684Z,3.10
2022-09-16T08:57:58.791Z,3.08
2022-09-16T09:00:26.644Z,3.05
2022-09-16T09:02:58.416Z,2.88
2022-09-16T09:05:48.385Z,3.17
2022-09-16T09:08:31.515Z,2.58
2022-09-16T09:11:06.117Z,3.13
2022-09-16T09:13:57.148Z,2.10
2022-09-16T09:16:34.347Z,2.30
2022-09-16T09:19:13.764Z,2.25
2022-09-16T09:21:50.814Z,2.17
2022-09-16T09:24:32.708Z,2.10
2022-09-16T09:27:07.213Z,2.28
2022-09-16T09:29:46.233Z,2.63
2022-09-16T09:32:24.895Z,2.80
2022-09-16T09:35:08.429Z,2.78
2022-09-16T09:37:51.581Z,2.85
2022-09-16T09:40:27.570Z,2.17
2022-09-16T09:43:07.560Z,2.35
2022-09-16T09:45:39.612Z,2.30
2022-09-16T09:48:19.500Z,2.88
2022-09-16T09:50:50.819Z,2.22
2022-09-16T09:53:25.192Z,2.65
2022-09-16T09:56:01.283Z,3.47
2022-09-16T09:58:35.096Z,3.80
2022-09-16T10:01:03.610Z,4.40
2022-09-16T10:03:32.228Z,4.15
2022-09-16T10:06:01.601Z,4.78
2022-09-16T10:08:34.756Z,4.63
2022-09-16T10:11:04.318Z,4.60
2022-09-16T10:13:32.375Z,4.25
2022-09-16T10:16:15.278Z,4.93
2022-09-16T10:18:44.966Z,4.30
2022-09-16T10:21:17.632Z,4.70
2022-09-16T10:23:55.175Z,4.75
2022-09-16T10:26:25.231Z,5.40
2022-09-16T10:29:01.899Z,4.75
2022-09-16T10:31:36.443Z,5.03
2022-09-16T10:34:06.710Z,4.57
2022-09-16T10:36:36.731Z,4.22
2022-09-16T10:39:06.027Z,4.03
2022-09-16T10:41:36.616Z,3.40
2022-09-16T10:44:08.668Z,2.47
2022-09-16T10:46:37.889Z,2.00
2022-09-16T10:49:12.882Z,1.83
2022-09-16T10:51:42.423Z,1.98
2022-09-16T10:54:25.928Z,1.80
2022-09-16T10:56:54.045Z,1.85
2022-09-16T10:59:22.246Z,1.75
2022-09-16T11:01:59.546Z,2.33
2022-09-16T11:04:40.099Z,2.03
2022-09-16T11:07:20.351Z,1.83
2022-09-16T11:09:57.188Z,1.98
2022-09-16T11:12:44.923Z,2.00
2022-09-16T11:15:26.693Z,2.25
2022-09-16T11:18:09.596Z,2.25
2022-09-16T11:20:52.196Z,2.10
2022-09-16T11:23:35.959Z,1.90
2022-09-16T11:26:11.621Z,2.22
2022-09-16T11:28:52.255Z,2.20
2022-09-16T11:31:34.623Z,2.15
2022-09-16T11:36:45.925Z,2.15
2022-09-16T11:39:31.911Z,1.63
2022-09-16T11:42:04.731Z,2.28
2022-09-16T11:44:42.831Z,1.67
2022-09-16T11:47:40.474Z,1.48
2022-09-16T11:50:23.811Z,1.70
2022-09-16T11:53:10.321Z,1.50
2022-09-16T11:55:51.585Z,1.30
2022-09-16T11:58:28.191Z,1.40
2022-09-16T12:01:02.123Z,1.20
2022-09-16T12:03:33.141Z,1.30
2022-09-16T12:06:08.161Z,1.30
2022-09-16T12:08:49.793Z,1.33
2022-09-16T12:11:25.410Z,1.85
2022-09-16T12:14:05.662Z,1.55
2022-09-16T12:16:40.557Z,1.20
2022-09-16T12:19:17.081Z,1.42
2022-09-16T12:21:57.400Z,1.70
2022-09-16T12:24:37.148Z,1.75
2022-09-16T12:27:12.759Z,2.00
2022-09-16T12:29:47.303Z,2.03
2022-09-16T12:32:21.017Z,2.10
2022-09-16T12:34:55.606Z,2.10
2022-09-16T12:37:38.399Z,1.92
2022-09-16T12:40:24.225Z,1.42
2022-09-16T12:43:31.295Z,1.60
2022-09-16T12:46:28.596Z,1.48
2022-09-16T12:49:20.861Z,1.50
2022-09-16T12:55:06.794Z,1.50
2022-09-16T12:57:46.271Z,1.70
2022-09-16T13:00:21.139Z,1.63
2022-09-16T13:02:53.121Z,1.77
2022-09-16T13:07:54.264Z,2.17
2022-09-16T13:10:54.563Z,1.80
2022-09-16T13:13:30.628Z,2.00
2022-09-16T13:16:02.121Z,2.00
2022-09-16T13:18:43.068Z,1.98
2022-09-16T13:21:23.940Z,2.00
2022-09-16T13:24:01.695Z,2.15
2022-09-16T13:26:41.224Z,2.30
2022-09-16T13:29:30.776Z,2.42
2022-09-16T13:32:00.276Z,2.30
2022-09-16T13:34:28.648Z,2.33
2022-09-16T13:36:56.442Z,2.03
2022-09-16T13:39:32.441Z,1.88
2022-09-16T13:42:12.366Z,2.13
2022-09-16T13:44:43.952Z,2.03
2022-09-16T13:47:34.111Z,2.60
2022-09-16T13:50:11.423Z,1.92
2022-09-16T13:52:40.282Z,2.50
2022-09-16T13:55:21.506Z,2.85
2022-09-16T13:58:00.758Z,2.67
2022-09-16T14:00:37.544Z,2.50
2022-09-16T14:03:28.911Z,2.38
2022-09-16T14:06:18.086Z,2.92
2022-09-16T14:08:56.468Z,2.75
2022-09-16T14:11:33.487Z,3.03
2022-09-16T14:14:06.120Z,3.47
2022-09-16T14:16:36.361Z,4.00
2022-09-16T14:19:08.490Z,3.38
2022-09-16T14:21:38.415Z,3.55
2022-09-16T14:24:16.985Z,12.07
2022-09-16T14:26:55.274Z,3.40
2022-09-16T14:29:24.622Z,5.20
2022-09-16T14:31:56.021Z,2.88
2022-09-16T14:34:29.310Z,3.55
2022-09-16T14:36:57.980Z,3.90
2022-09-16T14:39:27.809Z,3.40
2022-09-16T14:41:58.558Z,3.20
2022-09-16T14:44:28.844Z,2.92
2022-09-16T14:47:07.528Z,3.15
2022-09-16T14:49:39.486Z,3.13
2022-09-16T14:52:19.500Z,2.83
2022-09-16T14:54:48.197Z,2.70
2022-09-16T14:57:20.685Z,2.83
2022-09-16T14:59:48.771Z,2.70
2022-09-16T15:02:20.429Z,3.22
2022-09-16T15:04:54.346Z,2.70
2022-09-16T15:07:27.884Z,2.50
2022-09-16T15:10:02.496Z,2.30
2022-09-16T15:12:34.170Z,4.30
2022-09-16T15:15:06.205Z,2.47
2022-09-16T15:17:34.216Z,2.67
2022-09-16T15:20:03.776Z,2.47
2022-09-16T15:22:31.834Z,2.38
2022-09-16T15:25:00.284Z,2.40
2022-09-16T15:27:30.090Z,2.20
2022-09-16T15:30:01.029Z,2.53
2022-09-16T15:32:31.762Z,3.00
2022-09-16T15:35:21.189Z,2.40
2022-09-16T15:37:49.769Z,2.65
2022-09-16T15:40:32.811Z,2.22
2022-09-16T15:43:15.942Z,2.25
2022-09-16T15:45:45.480Z,2.45
2022-09-16T15:48:18.084Z,2.83
2022-09-16T15:50:52.351Z,2.58
2022-09-16T15:53:34.776Z,2.45
2022-09-16T15:56:08.857Z,2.40
2022-09-16T15:58:40.872Z,2.97
2022-09-16T16:01:14.951Z,2.17
2022-09-16T16:03:54.722Z,2.38
2022-09-16T16:06:50.496Z,3.60
2022-09-16T16:09:33.865Z,3.40
2022-09-16T16:12:03.502Z,3.08
2022-09-16T16:14:33.076Z,3.35
2022-09-16T16:17:12.821Z,3.50
2022-09-16T16:19:42.689Z,3.65
2022-09-16T16:22:12.413Z,3.15
2022-09-16T16:24:40.552Z,3.67
2022-09-16T16:27:09.613Z,3.88
2022-09-16T16:29:38.875Z,3.78
2022-09-16T16:32:08.892Z,4.38
2022-09-16T16:34:38.622Z,5.78
2022-09-16T16:37:07.305Z,6.05
2022-09-16T16:39:36.686Z,7.70
2022-09-16T16:42:05.870Z,7.50
2022-09-16T16:44:34.041Z,4.78
2022-09-16T16:47:02.613Z,5.38
2022-09-16T16:49:30.642Z,6.00
2022-09-16T16:51:58.784Z,5.20
2022-09-16T16:54:27.400Z,5.88
2022-09-16T16:56:58.205Z,5.25
2022-09-16T16:59:26.095Z,5.50
2022-09-16T17:01:56.189Z,5.93
2022-09-16T17:04:25.894Z,5.60
2022-09-16T17:07:14.473Z,5.90
2022-09-16T17:09:42.029Z,4.95
2022-09-16T17:12:12.803Z,4.90
2022-09-16T17:14:40.810Z,4.35
2022-09-16T17:17:08.921Z,6.53
2022-09-16T17:19:36.664Z,6.15
2022-09-16T17:22:04.454Z,6.05
2022-09-16T17:24:33.105Z,5.32
2022-09-16T17:27:01.487Z,4.90
2022-09-16T17:29:30.930Z,4.38
2022-09-16T17:32:02.313Z,4.72
2022-09-16T17:34:30.143Z,4.70
2022-09-16T17:36:58.409Z,3.55
2022-09-16T17:39:29.329Z,4.40
2022-09-16T17:41:57.423Z,4.20
2022-09-16T17:44:25.474Z,4.80
2022-09-16T17:46:55.065Z,4.40
2022-09-16T17:49:24.212Z,4.90
2022-09-16T17:51:53.753Z,4.90
2022-09-16T17:54:23.145Z,4.60
2022-09-16T17:56:51.142Z,5.18
2022-09-16T17:59:19.708Z,4.40
2022-09-16T18:01:48.537Z,4.47
2022-09-16T18:04:17.694Z,4.30
2022-09-16T18:06:47.369Z,4.57
2022-09-16T18:09:17.218Z,4.88
2022-09-16T18:11:45.079Z,5.22
2022-09-16T18:14:14.406Z,4.35
2022-09-16T18:16:43.042Z,5.07
2022-09-16T18:19:10.953Z,5.93
2022-09-16T18:21:40.385Z,5.18
2022-09-16T18:24:13.246Z,5.65
2022-09-16T18:26:41.986Z,5.93
2022-09-16T18:29:12.063Z,6.57
2022-09-16T18:31:43.770Z,7.30
2022-09-16T18:34:13.053Z,7.65
2022-09-16T18:36:42.769Z,8.57
2022-09-16T18:39:14.138Z,7.65
2022-09-16T18:41:44.256Z,7.80
2022-09-16T18:44:14.493Z,7.18
2022-09-16T18:46:42.708Z,6.47
2022-09-16T18:49:13.474Z,6.40
2022-09-16T18:51:49.824Z,6.38
2022-09-16T18:54:24.503Z,6.68
2022-09-16T18:56:55.470Z,7.30
2022-09-16T18:59:26.803Z,7.70
2022-09-16T19:01:56.945Z,6.63
2022-09-16T19:04:26.885Z,6.63
2022-09-16T19:06:59.314Z,6.32
2022-09-16T19:09:27.589Z,6.80
2022-09-16T19:11:56.114Z,6.45
2022-09-16T19:14:27.284Z,5.95
2022-09-16T19:16:55.498Z,7.28
2022-09-16T19:19:23.643Z,7.38
2022-09-16T19:21:51.708Z,8.32
2022-09-16T19:24:22.980Z,6.97
2022-09-16T19:26:53.153Z,5.55
2022-09-16T19:29:22.060Z,5.35
2022-09-16T19:31:52.710Z,5.00
2022-09-16T19:34:21.613Z,4.53
2022-09-16T19:36:49.963Z,4.57
2022-09-16T19:39:18.331Z,4.78
2022-09-16T19:41:47.452Z,4.90
2022-09-16T19:44:16.981Z,4.38
2022-09-16T19:46:46.924Z,4.63
2022-09-16T19:49:17.314Z,4.50
2022-09-16T19:51:45.337Z,4.40
2022-09-16T19:54:13.569Z,4.00
2022-09-16T19:56:44.162Z,4.00
2022-09-16T19:59:16.545Z,3.45
2022-09-16T20:01:44.987Z,4.07
2022-09-16T20:04:12.902Z,3.88
2022-09-16T20:06:42.533Z,3.97
2022-09-16T20:09:14.422Z,3.90
2022-09-16T20:11:44.007Z,4.00
2022-09-16T20:14:15.580Z,4.28
2022-09-16T20:16:45.217Z,4.13
2022-09-16T20:19:14.809Z,4.30
2022-09-16T20:21:43.280Z,3.67
2022-09-16T20:24:15.511Z,3.17
2022-09-16T20:29:11.358Z,3.78
2022-09-16T20:31:39.709Z,3.67
2022-09-16T20:34:08.916Z,3.70
2022-09-16T20:36:38.262Z,3.97
2022-09-16T20:39:07.337Z,4.10
2022-09-16T20:41:37.370Z,4.10
2022-09-16T20:44:05.879Z,3.95
2022-09-16T20:46:35.654Z,4.03
2022-09-16T20:49:06.513Z,3.92
2022-09-16T20:51:36.174Z,3.63
2022-09-16T20:54:07.778Z,3.42
2022-09-16T20:56:39.846Z,3.55
2022-09-16T20:59:08.739Z,3.35
2022-09-16T21:01:37.944Z,4.25
2022-09-16T21:04:08.006Z,3.30
2022-09-16T21:06:37.473Z,3.78
2022-09-16T21:09:08.118Z,3.85
2022-09-16T21:11:36.419Z,4.45
2022-09-16T21:14:07.575Z,4.47
2022-09-16T21:16:36.982Z,5.05
2022-09-16T21:19:09.144Z,5.03
2022-09-16T21:21:39.837Z,4.15
2022-09-16T21:24:09.836Z,4.15
2022-09-16T21:26:39.199Z,4.68
2022-09-16T21:29:11.466Z,4.32
2022-09-16T21:31:41.066Z,4.63
2022-09-16T21:34:13.706Z,4.63
2022-09-16T21:36:44.469Z,4.28
2022-09-16T21:39:15.326Z,4.13
2022-09-16T21:41:45.392Z,4.03
2022-09-16T21:44:14.514Z,4.63
2022-09-16T21:46:45.443Z,4.10
2022-09-16T21:49:20.890Z,3.75
2022-09-16T21:51:50.145Z,3.97
2022-09-16T21:54:20.452Z,4.05
2022-09-16T21:56:49.317Z,4.10
2022-09-16T21:59:19.438Z,3.88
2022-09-16T22:01:47.790Z,4.15
2022-09-16T22:04:18.165Z,4.05
2022-09-16T22:06:46.233Z,3.78
2022-09-16T22:09:15.613Z,3.58
2022-09-16T22:11:43.837Z,4.13
2022-09-16T22:14:12.437Z,4.05
2022-09-16T22:16:41.563Z,3.90
2022-09-16T22:19:12.112Z,3.65
2022-09-16T22:21:42.156Z,3.97
2022-09-16T22:24:10.796Z,3.70
2022-09-16T22:26:40.514Z,4.90
2022-09-16T22:29:09.330Z,3.95
2022-09-16T22:31:39.497Z,3.88
2022-09-16T22:34:07.845Z,4.05
2022-09-16T22:36:37.223Z,5.45
2022-09-16T22:39:08.019Z,3.97
2022-09-16T22:41:35.782Z,4.75
2022-09-16T22:44:05.557Z,4.53
2022-09-16T22:46:35.791Z,4.32
2022-09-16T22:49:03.653Z,4.90
2022-09-16T22:51:32.754Z,4.32
2022-09-16T22:54:00.762Z,5.03
2022-09-16T22:56:32.091Z,3.90
2022-09-16T22:59:01.984Z,4.75
2022-09-16T23:01:33.184Z,4.55
2022-09-16T23:04:12.680Z,4.00
2022-09-16T23:06:41.140Z,4.50
2022-09-16T23:09:10.082Z,3.80
2022-09-16T23:11:38.114Z,4.45
2022-09-16T23:14:07.158Z,4.30
2022-09-16T23:16:38.341Z,4.80
2022-09-16T23:19:09.370Z,4.68
2022-09-16T23:21:38.470Z,4.25
2022-09-16T23:24:08.942Z,4.93
2022-09-16T23:26:39.342Z,4.18
2022-09-16T23:29:09.381Z,4.72
2022-09-16T23:31:40.498Z,3.97
2022-09-16T23:34:12.213Z,4.10
2022-09-16T23:36:40.265Z,4.80
2022-09-16T23:39:09.051Z,3.90
2022-09-16T23:41:38.428Z,4.50
2022-09-16T23:44:06.781Z,4.43
2022-09-16T23:46:34.627Z,3.95
2022-09-16T23:49:04.266Z,4.10
2022-09-16T23:51:32.935Z,4.53
2022-09-16T23:54:01.033Z,3.95
2022-09-16T23:56:29.211Z,3.85
2022-09-16T23:59:00.754Z,4.22
